createdAt,value
2022-12-25T00:01:51.646Z,78.62
2022-12-25T00:04:25.432Z,78.79
2022-12-25T00:06:59.914Z,78.88
2022-12-25T00:09:34.049Z,78.84
2022-12-25T00:12:08.795Z,78.55
2022-12-25T00:14:42.318Z,78.34
2022-12-25T00:17:16.379Z,78.09
2022-12-25T00:19:50.383Z,78.34
2022-12-25T00:22:24.075Z,78.69
2022-12-25T00:24:57.907Z,78.63
2022-12-25T00:27:32.795Z,78.62
2022-12-25T00:30:08.220Z,78.42
2022-12-25T00:32:42.465Z,78.52
2022-12-25T00:35:15.930Z,78.71
2022-12-25T00:37:49.433Z,78.51
2022-12-25T00:40:23.036Z,78.51
2022-12-25T00:42:56.653Z,78.70
2022-12-25T00:45:30.197Z,79.23
2022-12-25T00:48:03.881Z,79.12
2022-12-25T00:50:39.376Z,79.07
2022-12-25T00:53:13.044Z,79.14
2022-12-25T00:55:46.590Z,79.19
2022-12-25T00:58:20.071Z,79.06
2022-12-25T01:00:54.551Z,79.16
2022-12-25T01:03:29.160Z,79.22
2022-12-25T01:06:05.281Z,79.42
2022-12-25T01:09:01.351Z,79.52
2022-12-25T01:11:35.520Z,79.67
2022-12-25T01:14:10.452Z,79.83
2022-12-25T01:16:43.953Z,80.03
2022-12-25T01:19:17.261Z,80.17
2022-12-25T01:21:51.296Z,80.20
2022-12-25T01:24:24.784Z,80.00
2022-12-25T01:26:58.781Z,80.05
2022-12-25T01:29:32.355Z,80.39
2022-12-25T01:32:06.837Z,80.40
2022-12-25T01:34:40.409Z,80.41
2022-12-25T01:37:14.372Z,80.48
2022-12-25T01:39:48.337Z,80.47
2022-12-25T01:42:24.054Z,80.71
2022-12-25T01:45:39.789Z,80.68
2022-12-25T01:48:20.404Z,80.72
2022-12-25T01:50:59.214Z,80.58
2022-12-25T01:53:33.444Z,80.51
2022-12-25T01:56:10.177Z,80.53
2022-12-25T01:58:44.644Z,80.50
2022-12-25T02:01:18.415Z,80.09
2022-12-25T02:03:53.267Z,80.04
2022-12-25T02:06:27.514Z,80.12
2022-12-25T02:09:02.045Z,80.16
2022-12-25T02:11:53.471Z,80.10
2022-12-25T02:14:29.435Z,80.27
2022-12-25T02:17:09.279Z,80.46
2022-12-25T02:20:01.880Z,80.56
2022-12-25T02:22:46.961Z,80.92
2022-12-25T02:25:38.321Z,81.17
2022-12-25T02:28:18.336Z,80.93
2022-12-25T02:31:01.519Z,80.96
2022-12-25T02:33:59.897Z,81.04
2022-12-25T02:36:40.592Z,80.94
2022-12-25T02:39:37.747Z,80.99
2022-12-25T02:42:21.339Z,81.28
2022-12-25T02:45:13.455Z,81.27
2022-12-25T02:48:04.858Z,81.11
2022-12-25T02:50:56.790Z,81.42
2022-12-25T02:53:49.335Z,81.39
2022-12-25T02:56:42.393Z,81.30
2022-12-25T02:59:36.399Z,81.33
2022-12-25T03:02:28.746Z,81.08
2022-12-25T03:05:26.404Z,81.31
2022-12-25T03:08:04.297Z,81.48
2022-12-25T03:10:59.587Z,81.45
2022-12-25T03:13:38.790Z,81.57
2022-12-25T03:16:30.070Z,81.48
2022-12-25T03:19:24.963Z,81.52
2022-12-25T03:22:16.867Z,81.70
2022-12-25T03:25:08.703Z,81.86
2022-12-25T03:27:44.582Z,81.89
2022-12-25T03:30:36.102Z,82.07
2022-12-25T03:33:43.967Z,81.76
2022-12-25T03:36:20.480Z,81.97
2022-12-25T03:39:28.083Z,82.06
2022-12-25T03:42:24.695Z,81.94
2022-12-25T03:45:23.000Z,81.95
2022-12-25T03:48:16.336Z,81.90
2022-12-25T03:51:13.582Z,81.75
2022-12-25T03:54:09.200Z,81.93
2022-12-25T03:57:02.833Z,81.99
2022-12-25T03:59:54.304Z,82.04
2022-12-25T04:02:45.720Z,82.01
2022-12-25T04:05:33.709Z,82.10
2022-12-25T04:08:36.532Z,82.22
2022-12-25T04:11:28.071Z,82.19
2022-12-25T04:14:19.636Z,82.03
2022-12-25T04:17:22.504Z,82.25
2022-12-25T04:20:13.640Z,81.47
2022-12-25T04:23:05.437Z,81.42
2022-12-25T04:25:57.025Z,81.52
2022-12-25T04:28:48.149Z,81.87
2022-12-25T04:31:39.121Z,81.99
2022-12-25T04:34:30.583Z,82.03
2022-12-25T04:37:04.435Z,81.84
2022-12-25T04:39:38.165Z,81.50
2022-12-25T04:42:13.069Z,81.35
2022-12-25T04:44:46.963Z,81.64
2022-12-25T04:47:20.780Z,81.87
2022-12-25T04:49:54.548Z,81.68
2022-12-25T04:52:28.387Z,81.74
2022-12-25T04:55:01.956Z,81.90
2022-12-25T04:57:35.684Z,81.73
2022-12-25T05:00:11.604Z,81.68
2022-12-25T05:02:45.200Z,81.29
2022-12-25T05:05:19.278Z,81.20
2022-12-25T05:07:53.224Z,80.87
2022-12-25T05:10:26.634Z,80.83
2022-12-25T05:13:00.379Z,81.13
2022-12-25T05:15:34.288Z,81.15
2022-12-25T05:18:08.161Z,81.05
2022-12-25T05:20:42.155Z,81.20
2022-12-25T05:23:16.250Z,81.38
2022-12-25T05:25:49.794Z,81.38
2022-12-25T05:28:23.606Z,81.18
2022-12-25T05:30:59.768Z,81.26
2022-12-25T05:33:33.668Z,81.34
2022-12-25T05:36:10.154Z,81.58
2022-12-25T05:38:43.928Z,81.36
2022-12-25T05:41:17.602Z,81.36
2022-12-25T05:43:51.506Z,81.42
2022-12-25T05:46:25.291Z,81.54
2022-12-25T05:48:59.183Z,81.53
2022-12-25T05:51:33.157Z,81.48
2022-12-25T05:54:06.915Z,81.66
2022-12-25T05:56:41.219Z,81.62
2022-12-25T05:59:15.359Z,81.54
2022-12-25T06:01:48.892Z,81.51
2022-12-25T06:04:22.443Z,81.52
2022-12-25T06:06:56.796Z,81.56
2022-12-25T06:09:30.763Z,81.47
2022-12-25T06:12:04.211Z,81.27
2022-12-25T06:14:38.544Z,81.21
2022-12-25T06:17:12.772Z,81.21
2022-12-25T06:19:47.324Z,81.32
2022-12-25T06:22:20.875Z,81.50
2022-12-25T06:24:54.944Z,81.52
2022-12-25T06:27:28.892Z,81.69
2022-12-25T06:30:02.754Z,81.46
2022-12-25T06:32:36.451Z,81.27
2022-12-25T06:35:11.444Z,81.23
2022-12-25T06:37:45.088Z,81.30
2022-12-25T06:40:19.173Z,81.56
2022-12-25T06:42:53.217Z,81.60
2022-12-25T06:45:26.948Z,81.72
2022-12-25T06:48:00.393Z,81.85
2022-12-25T06:50:34.235Z,81.67
2022-12-25T06:53:07.784Z,81.76
2022-12-25T06:55:41.171Z,82.08
2022-12-25T06:58:14.817Z,82.02
2022-12-25T07:00:48.305Z,82.09
2022-12-25T07:03:24.627Z,81.91
2022-12-25T07:05:58.300Z,81.75
2022-12-25T07:08:32.451Z,81.96
2022-12-25T07:11:06.540Z,81.70
2022-12-25T07:13:40.398Z,81.75
2022-12-25T07:16:14.914Z,81.66
2022-12-25T07:18:49.025Z,81.63
2022-12-25T07:21:23.400Z,81.44
2022-12-25T07:23:57.243Z,81.30
2022-12-25T07:26:30.915Z,81.67
2022-12-25T07:29:04.739Z,81.85
2022-12-25T07:31:38.621Z,81.94
2022-12-25T07:34:12.327Z,81.83
2022-12-25T07:36:45.905Z,81.49
2022-12-25T07:39:20.297Z,81.08
2022-12-25T07:41:54.447Z,80.95
2022-12-25T07:44:28.024Z,80.99
2022-12-25T07:47:01.782Z,80.94
2022-12-25T07:49:35.712Z,81.07
2022-12-25T07:52:09.715Z,81.03
2022-12-25T07:54:43.184Z,80.88
2022-12-25T07:57:17.152Z,80.95
2022-12-25T07:59:50.634Z,80.99
2022-12-25T08:02:29.093Z,80.99
2022-12-25T08:05:03.230Z,81.32
2022-12-25T08:07:37.292Z,81.20
2022-12-25T08:10:12.832Z,81.17
2022-12-25T08:12:46.543Z,81.25
2022-12-25T08:15:20.059Z,81.12
2022-12-25T08:17:53.563Z,81.05
2022-12-25T08:20:27.290Z,81.01
2022-12-25T08:23:00.931Z,80.91
2022-12-25T08:25:34.534Z,80.94
2022-12-25T08:28:08.511Z,80.75
2022-12-25T08:30:43.327Z,80.63
2022-12-25T08:33:17.121Z,80.54
2022-12-25T08:35:51.121Z,80.55
2022-12-25T08:38:24.884Z,80.51
2022-12-25T08:40:59.016Z,80.34
2022-12-25T08:43:32.574Z,80.39
2022-12-25T08:46:07.209Z,80.46
2022-12-25T08:48:42.978Z,80.51
2022-12-25T08:51:18.211Z,80.57
2022-12-25T08:53:53.058Z,80.43
2022-12-25T08:56:26.588Z,80.39
2022-12-25T08:59:00.603Z,80.46
2022-12-25T09:01:34.525Z,80.55
2022-12-25T09:04:08.809Z,80.36
2022-12-25T09:06:42.587Z,80.35
2022-12-25T09:09:16.457Z,80.33
2022-12-25T09:11:50.641Z,80.24
2022-12-25T09:14:24.322Z,80.15
2022-12-25T09:16:58.187Z,80.16
2022-12-25T09:19:32.376Z,80.02
2022-12-25T09:22:06.079Z,80.11
2022-12-25T09:24:41.067Z,80.11
2022-12-25T09:27:15.395Z,80.11
2022-12-25T09:29:49.531Z,80.16
2022-12-25T09:32:23.669Z,80.04
2022-12-25T09:34:57.873Z,79.92
2022-12-25T09:37:31.784Z,79.83
2022-12-25T09:40:06.015Z,79.90
2022-12-25T09:42:39.921Z,80.10
2022-12-25T09:45:20.118Z,79.96
2022-12-25T09:47:57.407Z,79.88
2022-12-25T09:50:41.317Z,79.76
2022-12-25T09:53:21.155Z,79.68
2022-12-25T09:56:01.908Z,79.65
2022-12-25T09:58:36.024Z,79.55
2022-12-25T10:01:18.377Z,79.46
2022-12-25T10:04:10.924Z,79.37
2022-12-25T10:06:54.321Z,79.37
2022-12-25T10:09:48.246Z,79.44
2022-12-25T10:12:34.283Z,79.41
2022-12-25T10:15:33.009Z,79.23
2022-12-25T10:18:34.046Z,78.92
2022-12-25T10:21:13.380Z,78.74
2022-12-25T10:23:53.893Z,78.80
2022-12-25T10:26:28.648Z,78.92
2022-12-25T10:29:07.055Z,78.94
2022-12-25T10:31:42.115Z,78.74
2022-12-25T10:34:18.289Z,78.51
2022-12-25T10:36:52.707Z,78.43
2022-12-25T10:39:27.819Z,78.50
2022-12-25T10:42:33.279Z,78.47
2022-12-25T10:45:09.783Z,78.31
2022-12-25T10:47:44.522Z,78.21
2022-12-25T10:50:24.840Z,78.13
2022-12-25T10:53:04.774Z,78.07
2022-12-25T10:55:38.462Z,77.91
2022-12-25T10:58:21.718Z,77.96
2022-12-25T11:01:02.754Z,77.96
2022-12-25T11:03:39.098Z,77.69
2022-12-25T11:06:26.434Z,77.64
2022-12-25T11:09:02.530Z,77.66
2022-12-25T11:11:38.647Z,77.62
2022-12-25T11:14:21.453Z,77.54
2022-12-25T11:16:55.283Z,77.59
2022-12-25T11:19:31.230Z,77.56
2022-12-25T11:22:06.919Z,77.58
2022-12-25T11:24:40.388Z,77.63
2022-12-25T11:27:26.579Z,77.43
2022-12-25T11:30:03.806Z,77.40
2022-12-25T11:32:44.796Z,77.46
2022-12-25T11:35:20.852Z,77.30
2022-12-25T11:37:55.977Z,77.42
2022-12-25T11:40:37.885Z,77.37
2022-12-25T11:43:18.137Z,77.21
2022-12-25T11:45:56.071Z,77.18
2022-12-25T11:48:33.671Z,76.91
2022-12-25T11:51:11.392Z,76.98
2022-12-25T11:53:51.508Z,76.89
2022-12-25T11:56:28.476Z,76.88
2022-12-25T11:59:12.488Z,76.92
2022-12-25T12:01:54.250Z,76.98
2022-12-25T12:04:40.238Z,77.03
2022-12-25T12:07:25.898Z,76.86
2022-12-25T12:10:05.413Z,76.99
2022-12-25T12:12:49.351Z,77.02
2022-12-25T12:15:31.406Z,77.07
2022-12-25T12:18:20.608Z,76.84
2022-12-25T12:21:06.360Z,76.61
2022-12-25T12:23:52.734Z,76.70
2022-12-25T12:26:28.128Z,77.06
2022-12-25T12:29:04.136Z,77.18
2022-12-25T12:31:46.272Z,77.16
2022-12-25T12:34:27.637Z,77.26
2022-12-25T12:37:06.570Z,77.43
2022-12-25T12:39:42.270Z,77.31
2022-12-25T12:42:26.292Z,77.16
2022-12-25T12:45:10.580Z,77.08
2022-12-25T12:47:46.889Z,77.10
2022-12-25T12:50:40.373Z,77.06
2022-12-25T12:53:38.450Z,76.99
2022-12-25T12:56:18.533Z,76.95
2022-12-25T12:58:53.096Z,76.79
2022-12-25T13:01:47.308Z,76.81
2022-12-25T13:04:50.766Z,76.69
2022-12-25T13:07:44.809Z,76.72
2022-12-25T13:10:27.296Z,76.96
2022-12-25T13:13:04.764Z,76.97
2022-12-25T13:15:40.203Z,76.83
2022-12-25T13:18:16.520Z,76.78
2022-12-25T13:20:55.434Z,76.81
2022-12-25T13:23:32.766Z,77.06
2022-12-25T13:26:13.108Z,77.12
2022-12-25T13:28:49.653Z,77.12
2022-12-25T13:31:25.136Z,77.15
2022-12-25T13:34:04.285Z,77.00
2022-12-25T13:36:41.184Z,76.98
2022-12-25T13:39:19.880Z,77.14
2022-12-25T13:42:10.316Z,77.17
2022-12-25T13:44:49.879Z,77.35
2022-12-25T13:47:31.829Z,77.63
2022-12-25T13:50:18.856Z,77.83
2022-12-25T13:52:53.431Z,77.79
2022-12-25T13:55:29.128Z,77.67
2022-12-25T13:58:05.349Z,77.63
2022-12-25T14:00:41.108Z,77.51
2022-12-25T14:03:23.794Z,77.68
2022-12-25T14:06:02.708Z,77.76
2022-12-25T14:08:38.628Z,77.78
2022-12-25T14:11:16.091Z,77.97
2022-12-25T14:13:53.139Z,78.07
2022-12-25T14:16:27.794Z,78.03
2022-12-25T14:19:04.210Z,78.13
2022-12-25T14:21:41.283Z,78.24
2022-12-25T14:24:19.100Z,78.34
2022-12-25T14:27:01.818Z,78.12
2022-12-25T14:29:41.321Z,78.40
2022-12-25T14:32:19.965Z,78.65
2022-12-25T14:34:57.026Z,78.74
2022-12-25T14:37:33.578Z,78.55
2022-12-25T14:40:23.101Z,78.45
2022-12-25T14:43:01.908Z,78.54
2022-12-25T14:45:38.908Z,78.78
2022-12-25T14:48:25.408Z,78.87
2022-12-25T14:51:04.827Z,78.71
2022-12-25T14:53:42.935Z,78.70
2022-12-25T14:56:20.746Z,78.81
2022-12-25T14:58:56.326Z,78.97
2022-12-25T15:01:33.498Z,79.12
2022-12-25T15:04:19.272Z,78.94
2022-12-25T15:06:59.787Z,78.68
2022-12-25T15:09:36.307Z,78.73
2022-12-25T15:12:10.562Z,79.17
2022-12-25T15:14:44.687Z,79.14
2022-12-25T15:17:29.117Z,79.11
2022-12-25T15:20:07.011Z,78.76
2022-12-25T15:23:10.016Z,79.01
2022-12-25T15:25:35.555Z,79.05
2022-12-25T15:28:12.993Z,79.32
2022-12-25T15:30:47.069Z,79.60
2022-12-25T15:33:21.795Z,79.73
2022-12-25T15:35:55.409Z,79.43
2022-12-25T15:38:29.310Z,79.48
2022-12-25T15:41:03.069Z,79.68
2022-12-25T15:43:40.963Z,79.59
2022-12-25T15:46:15.950Z,79.30
2022-12-25T15:48:49.754Z,79.24
2022-12-25T15:51:23.941Z,79.32
2022-12-25T15:53:58.814Z,79.26
2022-12-25T15:56:38.649Z,79.71
2022-12-25T15:59:13.959Z,80.07
2022-12-25T16:01:50.832Z,80.15
2022-12-25T16:04:26.400Z,80.31
2022-12-25T16:07:00.372Z,80.42
2022-12-25T16:09:34.225Z,80.32
2022-12-25T16:12:08.218Z,80.28
2022-12-25T16:14:42.329Z,80.28
2022-12-25T16:17:17.429Z,80.26
2022-12-25T16:19:50.972Z,80.47
2022-12-25T16:22:27.266Z,80.73
2022-12-25T16:25:01.322Z,81.00
2022-12-25T16:27:34.939Z,80.89
2022-12-25T16:30:11.294Z,80.83
2022-12-25T16:32:45.781Z,80.90
2022-12-25T16:35:19.791Z,81.01
2022-12-25T16:37:53.992Z,80.88
2022-12-25T16:40:28.115Z,81.09
2022-12-25T16:43:02.356Z,81.11
2022-12-25T16:45:41.313Z,81.13
2022-12-25T16:48:15.996Z,81.08
2022-12-25T16:50:50.003Z,81.08
2022-12-25T16:53:24.258Z,80.99
2022-12-25T16:56:09.613Z,80.78
2022-12-25T16:58:46.942Z,80.86
2022-12-25T17:01:23.869Z,81.06
2022-12-25T17:04:01.780Z,81.26
2022-12-25T17:06:35.850Z,81.28
2022-12-25T17:09:10.969Z,81.37
2022-12-25T17:11:44.986Z,81.29
2022-12-25T17:14:18.564Z,81.07
2022-12-25T17:16:52.774Z,81.15
2022-12-25T17:19:26.436Z,81.04
2022-12-25T17:22:01.204Z,80.99
2022-12-25T17:24:37.733Z,81.05
2022-12-25T17:27:11.911Z,81.21
2022-12-25T17:29:47.605Z,81.20
2022-12-25T17:32:22.024Z,81.27
2022-12-25T17:34:55.978Z,81.33
2022-12-25T17:37:29.601Z,81.42
2022-12-25T17:40:03.448Z,81.33
2022-12-25T17:42:37.413Z,81.32
2022-12-25T17:45:13.119Z,81.40
2022-12-25T17:47:47.095Z,81.45
2022-12-25T17:50:20.955Z,81.70
2022-12-25T17:52:54.790Z,81.65
2022-12-25T17:55:34.577Z,81.61
2022-12-25T17:58:09.514Z,81.86
2022-12-25T18:00:44.374Z,81.84
2022-12-25T18:03:18.652Z,81.73
2022-12-25T18:05:52.507Z,81.47
2022-12-25T18:08:26.384Z,81.67
2022-12-25T18:11:03.749Z,81.62
2022-12-25T18:13:37.691Z,81.89
2022-12-25T18:16:12.858Z,82.15
2022-12-25T18:18:51.884Z,82.07
2022-12-25T18:21:26.764Z,82.16
2022-12-25T18:24:00.495Z,82.39
2022-12-25T18:26:35.133Z,82.74
2022-12-25T18:29:09.119Z,82.74
2022-12-25T18:31:43.252Z,82.52
2022-12-25T18:34:17.326Z,82.50
2022-12-25T18:36:52.706Z,82.53
2022-12-25T18:39:26.663Z,82.45
2022-12-25T18:42:18.706Z,82.22
2022-12-25T18:44:52.376Z,82.14
2022-12-25T18:47:26.493Z,82.18
2022-12-25T18:50:01.231Z,82.22
2022-12-25T18:52:48.250Z,82.51
2022-12-25T18:55:25.609Z,82.48
2022-12-25T18:57:59.807Z,82.56
2022-12-25T19:00:34.156Z,82.63
2022-12-25T19:03:08.712Z,82.82
2022-12-25T19:05:44.118Z,82.92
2022-12-25T19:08:18.205Z,82.85
2022-12-25T19:10:52.313Z,82.89
2022-12-25T19:13:26.083Z,83.20
2022-12-25T19:16:02.875Z,83.34
2022-12-25T19:18:36.999Z,83.34
2022-12-25T19:21:13.054Z,83.08
2022-12-25T19:23:47.247Z,83.10
2022-12-25T19:26:21.285Z,83.06
2022-12-25T19:28:55.906Z,83.13
2022-12-25T19:31:29.882Z,83.17
2022-12-25T19:34:04.211Z,83.15
2022-12-25T19:36:39.539Z,83.13
2022-12-25T19:39:15.370Z,83.11
2022-12-25T19:41:50.145Z,83.05
2022-12-25T19:44:24.791Z,83.30
2022-12-25T19:46:58.561Z,83.24
2022-12-25T19:49:35.247Z,83.48
2022-12-25T19:52:10.405Z,83.39
2022-12-25T19:54:44.052Z,83.26
2022-12-25T19:57:18.075Z,83.08
2022-12-25T19:59:52.947Z,83.23
2022-12-25T20:02:27.574Z,83.26
2022-12-25T20:05:02.024Z,83.29
2022-12-25T20:07:36.747Z,83.34
2022-12-25T20:10:11.474Z,83.44
2022-12-25T20:12:46.668Z,83.74
2022-12-25T20:15:21.704Z,83.56
2022-12-25T20:17:56.243Z,83.48
2022-12-25T20:20:30.709Z,83.38
2022-12-25T20:23:05.514Z,83.56
2022-12-25T20:25:43.268Z,83.53
2022-12-25T20:28:17.786Z,83.41
2022-12-25T20:30:51.571Z,83.28
2022-12-25T20:33:26.942Z,82.98
2022-12-25T20:36:03.307Z,82.68
2022-12-25T20:38:38.660Z,82.84
2022-12-25T20:41:30.488Z,82.85
2022-12-25T20:44:04.772Z,82.97
2022-12-25T20:46:38.871Z,83.10
2022-12-25T20:49:12.694Z,83.19
2022-12-25T20:51:47.205Z,83.28
2022-12-25T20:54:20.977Z,83.39
2022-12-25T20:56:55.034Z,83.45
2022-12-25T20:59:37.000Z,83.76
2022-12-25T21:02:34.468Z,83.67
2022-12-25T21:05:08.345Z,83.76
2022-12-25T21:07:42.243Z,83.73
2022-12-25T21:10:16.134Z,83.95
2022-12-25T21:12:49.580Z,83.70
2022-12-25T21:15:24.046Z,83.56
2022-12-25T21:17:57.691Z,83.54
2022-12-25T21:20:31.191Z,83.39
2022-12-25T21:23:05.332Z,83.37
2022-12-25T21:25:39.499Z,83.30
2022-12-25T21:28:13.115Z,82.99
2022-12-25T21:30:47.042Z,83.02
2022-12-25T21:33:38.345Z,83.25
2022-12-25T21:36:13.769Z,83.42
2022-12-25T21:38:47.731Z,83.35
2022-12-25T21:41:21.976Z,83.13
2022-12-25T21:43:56.414Z,83.18
2022-12-25T21:46:30.880Z,83.17
2022-12-25T21:49:05.775Z,83.31
2022-12-25T21:51:57.280Z,83.48
2022-12-25T21:54:31.538Z,83.55
2022-12-25T21:57:05.572Z,83.65
2022-12-25T21:59:39.611Z,83.57
2022-12-25T22:02:14.117Z,83.73
2022-12-25T22:04:48.317Z,83.80
2022-12-25T22:07:22.331Z,83.67
2022-12-25T22:09:56.735Z,83.79
2022-12-25T22:12:47.700Z,83.79
2022-12-25T22:15:22.002Z,83.83
2022-12-25T22:18:13.140Z,83.75
2022-12-25T22:20:47.067Z,83.69
2022-12-25T22:23:20.649Z,83.81
2022-12-25T22:25:54.416Z,83.84
2022-12-25T22:28:27.893Z,83.89
2022-12-25T22:31:04.512Z,84.08
2022-12-25T22:33:38.389Z,83.93
2022-12-25T22:36:13.327Z,84.04
2022-12-25T22:38:47.309Z,84.01
2022-12-25T22:41:21.095Z,84.02
2022-12-25T22:44:18.862Z,84.22
2022-12-25T22:46:48.692Z,84.40
2022-12-25T22:49:22.980Z,84.18
2022-12-25T22:51:56.879Z,84.27
2022-12-25T22:54:32.949Z,84.17
2022-12-25T22:57:07.906Z,84.02
2022-12-25T22:59:41.577Z,84.20
2022-12-25T23:02:15.682Z,84.18
2022-12-25T23:04:50.074Z,84.04
2022-12-25T23:07:23.991Z,84.24
2022-12-25T23:09:59.262Z,84.07
2022-12-25T23:12:50.813Z,84.10
2022-12-25T23:15:25.353Z,84.00
2022-12-25T23:18:16.983Z,84.16
2022-12-25T23:21:08.580Z,84.12
2022-12-25T23:23:59.780Z,84.13
2022-12-25T23:26:34.097Z,84.06
2022-12-25T23:29:25.866Z,84.07
2022-12-25T23:32:00.561Z,84.20
2022-12-25T23:34:34.209Z,84.30
2022-12-25T23:37:08.824Z,84.24
2022-12-25T23:39:42.611Z,84.31
2022-12-25T23:42:16.632Z,84.30
2022-12-25T23:44:50.374Z,84.25
2022-12-25T23:47:24.653Z,84.25
2022-12-25T23:49:58.316Z,84.08
2022-12-25T23:52:31.997Z,84.24
2022-12-25T23:55:05.952Z,84.12
2022-12-25T23:57:39.632Z,84.22
